Time;durP1;ratioP1;P1;durP2;ratioP2;P2;SDS_P1;SDS_P2;PMS_P1;PMS_P2;Temp;Humidity;BMP_temperature;BMP_pressure;BME280_temperature;BME280_humidity;BME280_pressure;Samples;Min_cycle;Max_cycle;Signal;HPM_P1;HPM_P2
2021/12/13 00:01:45;;;;;;;;;29.75;27.25;;;;;10.41;100.00;102392.44;4886211;29;45394;-83
2021/12/13 00:04:23;;;;;;;;;32.50;28.75;;;;;10.41;100.00;102389.78;4888764;29;45558;-82
2021/12/13 00:07:01;;;;;;;;;34.25;29.75;;;;;10.39;100.00;102386.28;4889478;29;44766;-83
2021/12/13 00:09:30;;;;;;;;;29.00;27.75;;;;;10.36;100.00;102379.34;4888080;29;45354;-82
2021/12/13 00:12:03;;;;;;;;;26.50;26.00;;;;;10.34;100.00;102380.31;4886813;29;45351;-83
2021/12/13 00:14:36;;;;;;;;;29.25;28.50;;;;;10.34;100.00;102375.00;4885745;29;45243;-82
2021/12/13 00:17:05;;;;;;;;;16.75;15.50;;;;;10.34;100.00;102377.66;4883506;29;45406;-83
2021/12/13 00:19:50;;;;;;;;;25.25;24.00;;;;;10.32;100.00;102377.72;4866182;29;44865;-82
2021/12/13 00:22:23;;;;;;;;;37.25;28.00;;;;;10.33;100.00;102376.78;4883213;29;45513;-83
2021/12/13 00:24:50;;;;;;;;;36.75;31.75;;;;;10.33;100.00;102370.59;4888855;29;45399;-82
2021/12/13 00:27:20;;;;;;;;;33.50;28.50;;;;;10.32;100.00;102367.09;4887420;29;44731;-82
2021/12/13 00:30:07;;;;;;;;;30.25;26.50;;;;;10.31;100.00;102367.16;4885342;29;44894;-82
2021/12/13 00:32:48;;;;;;;;;37.25;31.00;;;;;10.31;100.00;102367.16;4886606;29;45392;-83
2021/12/13 00:35:20;;;;;;;;;27.50;26.50;;;;;10.29;100.00;102360.09;4882537;29;45316;-82
2021/12/13 00:37:51;;;;;;;;;35.75;30.50;;;;;10.29;100.00;102354.78;4865192;29;45376;-83
2021/12/13 00:40:32;;;;;;;;;31.50;28.25;;;;;10.29;100.00;102353.91;4882862;29;44810;-83
2021/12/13 00:43:03;;;;;;;;;33.25;30.00;;;;;10.27;100.00;102359.31;4882750;29;44805;-82
2021/12/13 00:45:33;;;;;;;;;31.25;26.00;;;;;10.29;100.00;102351.25;4881063;29;45246;-82
2021/12/13 00:48:02;;;;;;;;;24.50;23.00;;;;;10.30;100.00;102358.34;4882204;29;45384;-83
2021/12/13 00:50:53;;;;;;;;;28.50;26.75;;;;;10.31;100.00;102354.75;4883554;29;45394;-82
2021/12/13 00:53:21;;;;;;;;;27.50;23.50;;;;;10.33;100.00;102352.88;4884936;29;45451;-81
2021/12/13 00:55:49;;;;;;;;;31.75;26.75;;;;;10.34;100.00;102346.63;4883891;29;45434;-82
2021/12/13 00:58:20;;;;;;;;;23.00;20.00;;;;;10.37;100.00;102354.50;4883277;29;45387;-82
2021/12/13 01:00:57;;;;;;;;;31.50;28.25;;;;;10.36;100.00;102351.91;4882135;29;45424;-82
2021/12/13 01:03:40;;;;;;;;;34.50;27.00;;;;;10.38;100.00;102355.34;4865616;29;45377;-81
2021/12/13 01:06:43;;;;;;;;;23.25;22.25;;;;;10.39;100.00;102359.72;4866525;29;45475;-79
2021/12/13 01:09:33;;;;;;;;;25.75;22.25;;;;;10.39;100.00;102357.94;4884245;29;44853;-80
2021/12/13 01:12:07;;;;;;;;;33.50;26.50;;;;;10.38;100.00;102358.88;4881804;29;44646;-81
2021/12/13 01:14:58;;;;;;;;;35.50;28.75;;;;;10.41;100.00;102363.22;4879831;29;45363;-81
2021/12/13 01:17:42;;;;;;;;;27.25;24.75;;;;;10.43;100.00;102364.00;4881640;29;45128;-81
2021/12/13 01:20:11;;;;;;;;;29.00;23.00;;;;;10.43;100.00;102362.22;4883291;29;44630;-80
2021/12/13 01:22:58;;;;;;;;;29.00;26.00;;;;;10.41;100.00;102360.56;4881838;29;45555;-82
2021/12/13 01:25:40;;;;;;;;;33.00;28.50;;;;;10.40;100.00;102354.38;4882199;29;45453;-81
2021/12/13 01:28:20;;;;;;;;;33.50;25.00;;;;;10.41;100.00;102355.25;4882511;29;45226;-80
2021/12/13 01:30:53;;;;;;;;;29.00;24.00;;;;;10.40;100.00;102349.06;4883296;29;45276;-80
2021/12/13 01:33:22;;;;;;;;;32.00;28.25;;;;;10.41;100.00;102353.44;4865235;29;45478;-81
2021/12/13 01:35:50;;;;;;;;;28.25;25.00;;;;;10.40;100.00;102349.06;4880582;29;44775;-81
2021/12/13 01:38:21;;;;;;;;;26.50;25.75;;;;;10.42;100.00;102362.28;4880637;29;45361;-80
2021/12/13 01:40:53;;;;;;;;;27.50;23.00;;;;;10.43;100.00;102356.03;4880826;29;45413;-81
2021/12/13 01:43:25;;;;;;;;;31.00;28.00;;;;;10.43;100.00;102358.69;4882284;29;45464;-80
2021/12/13 01:45:55;;;;;;;;;30.25;24.75;;;;;10.43;100.00;102359.53;4884117;29;45522;-81
2021/12/13 01:48:27;;;;;;;;;29.75;25.50;;;;;10.43;100.00;102367.53;4881060;29;45367;-81
2021/12/13 01:51:05;;;;;;;;;31.75;29.25;;;;;10.43;100.00;102361.34;4880911;29;45396;-80
2021/12/13 01:53:36;;;;;;;;;27.50;27.50;;;;;10.44;100.00;102366.63;4879139;29;44836;-80
2021/12/13 01:56:11;;;;;;;;;23.75;23.75;;;;;10.42;100.00;102372.91;4880443;29;44810;-80
2021/12/13 01:58:42;;;;;;;;;27.25;25.50;;;;;10.39;100.00;102362.38;4879391;29;45390;-79
2021/12/13 02:01:18;;;;;;;;;25.50;24.50;;;;;10.35;100.00;102364.31;4864014;29;44847;-80
2021/12/13 02:03:58;;;;;;;;;37.00;30.75;;;;;10.36;100.00;102363.41;4881000;29;44821;-81
2021/12/13 02:06:33;;;;;;;;;26.50;24.75;;;;;10.33;100.00;102360.84;4882272;29;45383;-80
2021/12/13 02:09:21;;;;;;;;;35.75;31.50;;;;;10.32;100.00;102367.09;4884390;29;45098;-80
2021/12/13 02:11:51;;;;;;;;;35.50;29.25;;;;;10.31;100.00;102365.38;4881172;29;45505;-81
2021/12/13 02:14:21;;;;;;;;;31.25;26.50;;;;;10.32;100.00;102368.88;4863771;29;45353;-80
2021/12/13 02:17:10;;;;;;;;;25.25;19.00;;;;;10.32;100.00;102368.88;4880188;29;45568;-80
2021/12/13 02:19:39;;;;;;;;;33.50;28.25;;;;;10.31;100.00;102376.00;4878664;29;46314;-81
2021/12/13 02:22:32;;;;;;;;;28.00;24.75;;;;;10.26;100.00;102370.88;4880232;29;45401;-81
2021/12/13 02:25:11;;;;;;;;;25.25;23.25;;;;;10.27;100.00;102374.38;4880375;29;45345;-80
2021/12/13 02:27:39;;;;;;;;;32.00;28.00;;;;;10.23;100.00;102378.91;4880103;29;45345;-80
2021/12/13 02:30:21;;;;;;;;;24.75;24.00;;;;;10.20;100.00;102376.38;4878329;29;45717;-80
2021/12/13 02:32:47;;;;;;;;;30.50;28.00;;;;;10.21;100.00;102374.59;4882238;29;45215;-80
2021/12/13 02:35:15;;;;;;;;;21.50;21.00;;;;;10.23;100.00;102378.03;4882186;29;45407;-81
2021/12/13 02:37:43;;;;;;;;;27.50;25.00;;;;;10.22;100.00;102371.88;4880321;29;45489;-79
2021/12/13 02:40:11;;;;;;;;;24.50;20.25;;;;;10.20;100.00;102368.41;4863600;29;45345;-80
2021/12/13 02:42:37;;;;;;;;;22.50;21.75;;;;;10.22;100.00;102368.34;4881571;29;45283;-80
2021/12/13 02:45:17;;;;;;;;;23.25;22.00;;;;;10.22;100.00;102366.56;4883275;29;44623;-80
2021/12/13 02:47:57;;;;;;;;;22.00;20.50;;;;;10.24;100.00;102375.34;4882175;29;45294;-80
2021/12/13 02:50:34;;;;;;;;;25.75;24.25;;;;;10.26;100.00;102367.34;4864267;29;45425;-80
2021/12/13 02:53:00;;;;;;;;;26.75;25.00;;;;;10.26;100.00;102368.22;4880310;29;44777;-80
2021/12/13 02:55:29;;;;;;;;;25.00;20.75;;;;;10.23;100.00;102368.28;4880589;29;45344;-79
2021/12/13 02:57:58;;;;;;;;;18.25;14.75;;;;;10.22;100.00;102371.88;4880826;29;44778;-80
2021/12/13 03:00:30;;;;;;;;;16.25;11.00;;;;;10.22;100.00;102363.91;4880679;29;45308;-78
2021/12/13 03:02:58;;;;;;;;;31.25;23.50;;;;;10.22;100.00;102363.91;4883251;29;45393;-80
2021/12/13 03:05:32;;;;;;;;;19.50;18.50;;;;;10.23;100.00;102368.28;4862971;29;45205;-79
2021/12/13 03:08:07;;;;;;;;;22.75;20.00;;;;;10.25;100.00;102361.16;4881047;29;45557;-80
2021/12/13 03:10:37;;;;;;;;;19.25;17.00;;;;;10.24;100.00;102362.06;4885164;29;45351;-80
2021/12/13 03:13:03;;;;;;;;;29.00;23.75;;;;;10.21;100.00;102356.88;4884901;29;45502;-80
2021/12/13 03:15:32;;;;;;;;;32.50;19.00;;;;;10.19;100.00;102361.34;4884515;29;45500;-80
2021/12/13 03:18:12;;;;;;;;;23.25;22.00;;;;;10.15;100.00;102366.84;4882954;29;45466;-80
2021/12/13 03:20:50;;;;;;;;;24.25;20.50;;;;;10.15;100.00;102364.19;4882586;29;45237;-81
2021/12/13 03:23:34;;;;;;;;;25.20;22.80;;;;;10.13;100.00;102360.75;4882729;29;45355;-80
2021/12/13 03:26:37;;;;;;;;;32.75;25.25;;;;;10.12;100.00;102365.19;4883133;29;44722;-81
2021/12/13 03:29:19;;;;;;;;;26.50;25.50;;;;;10.13;100.00;102352.78;4883387;29;44719;-80
2021/12/13 03:31:51;;;;;;;;;22.50;21.00;;;;;10.15;100.00;102356.22;4885004;29;45277;-81
2021/12/13 03:34:30;;;;;;;;;29.00;25.25;;;;;10.13;100.00;102347.47;4865689;29;45267;-80
2021/12/13 03:37:00;;;;;;;;;22.50;22.50;;;;;10.12;100.00;102345.75;4896843;29;45452;-81
2021/12/13 03:39:31;;;;;;;;;21.50;20.75;;;;;10.13;100.00;102356.28;4883302;29;44766;-81
2021/12/13 03:42:02;;;;;;;;;27.25;25.75;;;;;10.13;100.00;102345.66;4883374;29;45591;-81
2021/12/13 03:44:35;;;;;;;;;21.75;19.25;;;;;10.15;100.00;102356.22;4873360;29;45330;-79
2021/12/13 03:47:11;;;;;;;;;26.25;23.75;;;;;10.16;100.00;102348.22;4890727;29;44762;-80
2021/12/13 03:49:48;;;;;;;;;28.75;25.00;;;;;10.15;100.00;102346.47;4892379;29;44835;-79
2021/12/13 03:52:22;;;;;;;;;24.75;21.75;;;;;10.16;100.00;102342.91;4858452;29;46599;-80
2021/12/13 03:54:49;;;;;;;;;25.25;21.25;;;;;10.18;100.00;102337.53;4873589;29;44829;-80
2021/12/13 03:57:17;;;;;;;;;27.50;23.75;;;;;10.18;100.00;102329.56;4889019;29;44793;-79
2021/12/13 03:59:44;;;;;;;;;23.50;22.50;;;;;10.15;100.00;102324.34;4889652;29;44854;-79
2021/12/13 04:02:17;;;;;;;;;23.00;20.25;;;;;10.16;100.00;102328.75;4887394;29;45395;-80
2021/12/13 04:04:54;;;;;;;;;28.50;22.25;;;;;10.18;100.00;102332.22;4889187;29;44770;-79
2021/12/13 04:07:28;;;;;;;;;26.00;23.50;;;;;10.18;100.00;102329.56;4888584;29;44849;-81
2021/12/13 04:09:57;;;;;;;;;24.25;19.00;;;;;10.16;100.00;102324.31;4887766;29;45433;-81
2021/12/13 04:12:35;;;;;;;;;23.00;20.75;;;;;10.18;100.00;102334.88;4873921;29;47511;-80
2021/12/13 04:15:14;;;;;;;;;19.00;16.00;;;;;10.18;100.00;102334.88;4904387;29;45244;-80
2021/12/13 04:17:56;;;;;;;;;28.00;23.50;;;;;10.18;100.00;102324.25;4887008;29;45367;-80
2021/12/13 04:20:34;;;;;;;;;23.25;18.00;;;;;10.19;100.00;102329.47;4885787;29;45468;-80
2021/12/13 04:23:09;;;;;;;;;17.00;16.00;;;;;10.21;100.00;102330.31;4885597;29;45282;-80
2021/12/13 04:25:40;;;;;;;;;22.00;22.00;;;;;10.20;100.00;102325.03;4870892;29;44742;-80
2021/12/13 04:28:14;;;;;;;;;18.40;15.80;;;;;10.21;100.00;102329.44;4889409;29;44842;-80
2021/12/13 04:30:47;;;;;;;;;23.75;22.00;;;;;10.21;100.00;102332.97;4905124;29;44893;-80
2021/12/13 04:33:28;;;;;;;;;21.75;15.75;;;;;10.22;100.00;102326.72;4873722;29;47088;-80
2021/12/13 04:35:58;;;;;;;;;18.20;18.20;;;;;10.25;100.00;102337.25;4885432;29;45243;-81
2021/12/13 04:38:35;;;;;;;;;30.00;21.75;;;;;10.27;100.00;102331.88;4881663;29;45366;-80
2021/12/13 04:41:01;;;;;;;;;22.75;22.25;;;;;10.28;100.00;102330.94;4882101;29;45236;-80
2021/12/13 04:43:27;;;;;;;;;21.00;18.25;;;;;10.26;100.00;102332.81;4881470;29;45489;-80
2021/12/13 04:45:57;;;;;;;;;18.00;18.00;;;;;10.23;100.00;102331.09;4880980;29;45192;-80
2021/12/13 04:48:32;;;;;;;;;19.50;18.50;;;;;10.21;100.00;102329.44;4881815;29;45241;-80
2021/12/13 04:51:06;;;;;;;;;19.25;18.25;;;;;10.22;100.00;102341.78;4881908;29;44703;-80
2021/12/13 04:53:39;;;;;;;;;21.00;19.00;;;;;10.18;100.00;102342.84;4881823;29;45409;-79
2021/12/13 04:56:10;;;;;;;;;22.60;20.80;;;;;10.19;100.00;102342.75;4882284;29;45355;-80
2021/12/13 04:58:36;;;;;;;;;17.50;17.50;;;;;10.19;100.00;102347.22;4883479;29;44686;-80
2021/12/13 05:01:06;;;;;;;;;18.50;18.25;;;;;10.20;100.00;102343.63;4882079;29;45624;-80
2021/12/13 05:03:36;;;;;;;;;15.00;15.00;;;;;10.20;100.00;102343.63;4883810;29;45342;-79
2021/12/13 05:06:10;;;;;;;;;18.80;17.20;;;;;10.20;100.00;102347.19;4882597;29;45400;-80
2021/12/13 05:08:39;;;;;;;;;22.50;20.00;;;;;10.20;100.00;102348.94;4881477;29;45293;-79
2021/12/13 05:11:07;;;;;;;;;23.75;18.50;;;;;10.19;100.00;102348.06;4882121;29;45456;-84
2021/12/13 05:13:38;;;;;;;;;18.25;18.25;;;;;10.19;100.00;102353.38;4865516;29;45357;-79
2021/12/13 05:16:09;;;;;;;;;21.80;18.40;;;;;10.20;100.00;102351.59;4884763;29;44802;-82
2021/12/13 05:18:39;;;;;;;;;22.50;20.00;;;;;10.19;100.00;102353.38;4884285;29;44758;-81
2021/12/13 05:21:13;;;;;;;;;19.50;19.50;;;;;10.20;100.00;102348.94;4864808;29;45255;-81
2021/12/13 05:23:48;;;;;;;;;18.75;18.25;;;;;10.23;100.00;102351.47;4881928;29;45244;-82
2021/12/13 05:26:47;;;;;;;;;22.20;20.00;;;;;10.22;100.00;102352.41;4885097;29;44868;-80
2021/12/13 05:29:44;;;;;;;;;19.25;19.25;;;;;10.23;100.00;102354.13;4885920;29;45600;-80
2021/12/13 05:32:30;;;;;;;;;18.50;17.00;;;;;10.23;100.00;102357.66;4872601;29;44836;-81
2021/12/13 05:35:08;;;;;;;;;18.00;17.00;;;;;10.20;100.00;102357.81;4864118;29;45302;-82
2021/12/13 05:37:46;;;;;;;;;25.60;18.60;;;;;10.19;100.00;102355.19;4861773;29;45420;-82
2021/12/13 05:40:19;;;;;;;;;21.75;20.00;;;;;10.18;100.00;102356.97;4867416;29;44800;-81
2021/12/13 05:42:59;;;;;;;;;23.25;20.50;;;;;10.21;100.00;102350.69;4871754;29;45373;-80
2021/12/13 05:45:41;;;;;;;;;23.75;23.00;;;;;10.19;100.00;102353.38;4871375;29;45440;-80
2021/12/13 05:48:13;;;;;;;;;20.25;18.25;;;;;10.18;100.00;102351.66;4862368;29;45495;-80
2021/12/13 05:50:48;;;;;;;;;18.40;18.40;;;;;10.18;100.00;102348.16;4862224;29;44767;-81
2021/12/13 05:53:30;;;;;;;;;23.75;21.00;;;;;10.15;100.00;102354.44;4862044;29;45270;-81
2021/12/13 05:56:12;;;;;;;;;20.75;20.25;;;;;10.14;100.00;102350.06;4862139;29;45310;-82
2021/12/13 05:58:40;;;;;;;;;20.00;17.80;;;;;10.11;100.00;102349.31;4862192;29;45287;-81
2021/12/13 06:01:55;;;;;;;;;16.25;16.25;;;;;10.09;100.00;102348.50;4863154;29;45694;-81
2021/12/13 06:04:44;;;;;;;;;19.50;16.25;;;;;10.11;100.00;102351.97;4853264;29;44851;-82
2021/12/13 06:07:26;;;;;;;;;19.20;16.40;;;;;10.10;100.00;102353.75;4871162;29;46421;-82
2021/12/13 06:10:15;;;;;;;;;24.80;15.60;;;;;10.08;100.00;102347.66;4872099;29;44929;-81
2021/12/13 06:12:49;;;;;;;;;23.60;17.40;;;;;10.05;100.00;102351.28;4872620;29;45295;-81
2021/12/13 06:15:21;;;;;;;;;18.50;14.25;;;;;10.01;100.00;102354.13;4869966;29;45572;-82
2021/12/13 06:17:53;;;;;;;;;21.25;21.25;;;;;10.01;100.00;102352.34;4866066;29;45469;-82
2021/12/13 06:20:30;;;;;;;;;15.20;14.40;;;;;9.97;100.00;102348.06;4864400;29;45448;-82
2021/12/13 06:23:19;;;;;;;;;17.80;14.40;;;;;9.96;100.00;102350.75;4863287;29;45395;-81
2021/12/13 06:25:53;;;;;;;;;15.75;15.00;;;;;9.95;100.00;102349.03;4861963;29;45339;-81
2021/12/13 06:28:29;;;;;;;;;18.50;16.00;;;;;9.93;100.00;102359.72;4862991;29;45574;-81
2021/12/13 06:31:08;;;;;;;;;14.80;14.80;;;;;9.93;100.00;102353.56;4880354;29;44794;-81
2021/12/13 06:33:54;;;;;;;;;17.00;13.80;;;;;9.92;100.00;102349.16;4882139;29;44700;-82
2021/12/13 06:36:32;;;;;;;;;20.25;14.25;;;;;9.94;100.00;102356.13;4882563;29;45293;-81
2021/12/13 06:39:03;;;;;;;;;16.75;16.50;;;;;9.94;100.00;102356.13;4882455;29;45341;-81
2021/12/13 06:41:28;;;;;;;;;16.60;16.20;;;;;9.93;100.00;102359.72;4880333;29;44703;-81
2021/12/13 06:43:57;;;;;;;;;19.00;14.75;;;;;9.92;100.00;102359.78;4881907;29;45172;-81
2021/12/13 06:46:22;;;;;;;;;15.25;13.00;;;;;9.91;100.00;102366.88;4883669;29;44760;-81
2021/12/13 06:48:52;;;;;;;;;18.50;15.00;;;;;9.91;100.00;102358.03;4883451;29;45177;-82
2021/12/13 06:51:20;;;;;;;;;16.40;14.20;;;;;9.89;100.00;102363.41;4883056;29;45259;-80
2021/12/13 06:54:09;;;;;;;;;13.00;12.80;;;;;9.88;100.00;102369.66;4881910;29;45311;-81
2021/12/13 06:56:36;;;;;;;;;16.75;16.75;;;;;9.88;100.00;102369.66;4883243;29;44769;-80
2021/12/13 06:59:07;;;;;;;;;19.25;15.75;;;;;9.87;100.00;102357.31;4883149;29;45253;-82
2021/12/13 07:01:37;;;;;;;;;14.00;13.40;;;;;9.89;100.00;102359.91;4866793;29;44710;-84
2021/12/13 07:04:10;;;;;;;;;17.40;16.60;;;;;9.87;100.00;102362.63;4882010;29;45411;-80
2021/12/13 07:06:37;;;;;;;;;16.50;13.75;;;;;9.86;100.00;102358.22;4883995;29;45515;-81
2021/12/13 07:09:08;;;;;;;;;17.25;14.25;;;;;9.85;100.00;102366.25;4883725;29;44996;-82
2021/12/13 07:11:53;;;;;;;;;19.80;16.40;;;;;9.85;100.00;102368.91;4885070;29;44765;-80
2021/12/13 07:14:36;;;;;;;;;15.40;15.40;;;;;9.85;100.00;102363.59;4886716;29;45415;-82
2021/12/13 07:17:12;;;;;;;;;16.00;12.25;;;;;9.85;100.00;102366.25;4867405;29;45340;-83
2021/12/13 07:19:40;;;;;;;;;17.50;11.75;;;;;9.85;100.00;102366.25;4886487;29;45503;-81
2021/12/13 07:22:07;;;;;;;;;13.00;11.60;;;;;9.83;100.00;102361.00;4888832;29;44906;-82
2021/12/13 07:24:42;;;;;;;;;11.20;9.00;;;;;9.85;100.00;102360.94;4886190;29;45417;-81
2021/12/13 07:27:16;;;;;;;;;11.00;11.00;;;;;9.85;100.00;102348.53;4884124;29;45391;-81
2021/12/13 07:29:50;;;;;;;;;11.50;9.00;;;;;9.83;100.00;102344.22;4866436;29;45599;-82
2021/12/13 07:32:21;;;;;;;;;9.80;9.60;;;;;9.84;100.00;102345.94;4883765;29;45167;-81
2021/12/13 07:35:03;;;;;;;;;11.60;10.60;;;;;9.84;100.00;102353.91;4883676;29;44755;-80
2021/12/13 07:37:47;;;;;;;;;13.50;11.75;;;;;9.79;100.00;102354.06;4883028;29;45190;-84
2021/12/13 07:40:35;;;;;;;;;11.80;11.40;;;;;9.78;100.00;102366.47;4867972;29;45181;-85
2021/12/13 07:43:04;;;;;;;;;10.00;10.00;;;;;9.79;100.00;102362.88;4884779;29;44865;-85
2021/12/13 07:45:54;;;;;;;;;11.80;11.20;;;;;9.79;100.00;102362.88;4887297;29;44886;-82
2021/12/13 07:48:30;;;;;;;;;11.75;11.75;;;;;9.82;100.00;102372.53;4887992;29;44802;-84
2021/12/13 07:51:02;;;;;;;;;12.50;10.75;;;;;9.81;100.00;102373.44;4886239;29;46018;-84
2021/12/13 07:53:36;;;;;;;;;10.80;10.80;;;;;9.79;100.00;102377.97;4890224;29;44710;-81
2021/12/13 07:56:02;;;;;;;;;13.50;11.25;;;;;9.79;100.00;102377.97;4891030;29;45366;-83
2021/12/13 07:58:35;;;;;;;;;14.75;13.75;;;;;9.78;100.00;102365.63;4883522;29;45233;-84
2021/12/13 08:01:30;;;;;;;;;15.00;12.00;;;;;9.81;100.00;102364.63;4882675;29;45469;-83
2021/12/13 08:04:07;;;;;;;;;13.00;11.80;;;;;9.80;100.00;102363.75;4882203;29;44792;-83
2021/12/13 08:06:38;;;;;;;;;15.00;13.00;;;;;9.83;100.00;102368.97;4883353;29;45182;-83
2021/12/13 08:09:06;;;;;;;;;16.75;15.50;;;;;9.84;100.00;102368.03;4882636;29;45450;-83
2021/12/13 08:11:39;;;;;;;;;13.75;13.75;;;;;9.85;100.00;102364.44;4882634;29;45180;-83
2021/12/13 08:14:06;;;;;;;;;12.80;12.80;;;;;9.86;100.00;102368.81;4882988;29;45382;-83
2021/12/13 08:16:38;;;;;;;;;16.00;14.20;;;;;9.88;100.00;102369.66;4883514;29;44750;-82
2021/12/13 08:19:08;;;;;;;;;14.75;12.50;;;;;9.92;100.00;102373.94;4883752;29;45527;-84
2021/12/13 08:21:40;;;;;;;;;17.25;16.00;;;;;9.90;100.00;102370.44;4890131;29;45432;-84
2021/12/13 08:24:15;;;;;;;;;19.00;16.00;;;;;9.90;100.00;102369.59;4890839;29;44833;-82
2021/12/13 08:26:43;;;;;;;;;14.60;14.00;;;;;9.90;100.00;102372.22;4892383;29;45416;-83
2021/12/13 08:29:31;;;;;;;;;18.25;14.50;;;;;9.93;100.00;102375.66;4869258;29;44973;-83
2021/12/13 08:32:00;;;;;;;;;14.75;13.00;;;;;9.96;100.00;102374.66;4887021;29;45127;-83
2021/12/13 08:34:37;;;;;;;;;15.60;14.80;;;;;9.94;100.00;102372.06;4886893;29;45343;-83
2021/12/13 08:37:18;;;;;;;;;15.20;13.00;;;;;9.96;100.00;102382.63;4883459;29;45221;-84
2021/12/13 08:39:47;;;;;;;;;14.25;13.75;;;;;9.98;100.00;102375.47;4883258;29;44754;-82
2021/12/13 08:42:19;;;;;;;;;19.25;19.25;;;;;9.98;100.00;102378.13;4881448;29;45043;-81
2021/12/13 08:44:56;;;;;;;;;13.80;13.80;;;;;9.94;100.00;102374.72;4882261;29;44906;-82
2021/12/13 08:47:48;;;;;;;;;21.50;20.50;;;;;9.97;100.00;102379.91;4882517;29;45247;-84
2021/12/13 08:50:30;;;;;;;;;13.25;11.75;;;;;10.01;100.00;102384.19;4865536;29;45497;-83
2021/12/13 08:53:05;;;;;;;;;10.25;10.00;;;;;10.03;100.00;102385.00;4880196;29;45101;-82
2021/12/13 08:55:41;;;;;;;;;10.00;8.20;;;;;10.09;100.00;102383.03;4865039;29;45188;-83
2021/12/13 08:58:11;;;;;;;;;10.60;10.00;;;;;10.09;100.00;102380.38;4883668;29;44802;-82
2021/12/13 09:00:54;;;;;;;;;10.25;8.50;;;;;10.09;100.00;102369.75;4883391;29;44853;-83
2021/12/13 09:03:27;;;;;;;;;10.00;10.00;;;;;10.13;100.00;102372.22;4882844;29;45410;-82
2021/12/13 09:06:12;;;;;;;;;12.00;8.60;;;;;10.12;100.00;102374.94;4880976;29;45341;-83
2021/12/13 09:08:48;;;;;;;;;9.40;8.60;;;;;10.13;100.00;102374.88;4881243;29;45308;-82
2021/12/13 09:11:44;;;;;;;;;9.25;9.25;;;;;10.13;100.00;102376.69;4881383;29;45298;-81
2021/12/13 09:14:19;;;;;;;;;7.60;5.60;;;;;10.15;100.00;102375.69;4864461;29;47382;-84
2021/12/13 09:17:10;;;;;;;;;13.80;12.80;;;;;10.15;100.00;102380.13;4881751;29;44841;-83
2021/12/13 09:19:50;;;;;;;;;9.20;9.20;;;;;10.14;100.00;102389.88;4878472;29;45455;-85
2021/12/13 09:22:22;;;;;;;;;9.25;9.25;;;;;10.16;100.00;102381.88;4881685;29;45601;-85
2021/12/13 09:24:56;;;;;;;;;3.40;3.40;;;;;10.12;100.00;102389.09;4884043;29;45365;-83
2021/12/13 09:27:41;;;;;;;;;8.60;7.00;;;;;10.12;100.00;102389.09;4885242;29;44806;-83
2021/12/13 09:30:12;;;;;;;;;8.60;6.40;;;;;10.15;100.00;102383.63;4884814;29;44869;-83
2021/12/13 09:32:45;;;;;;;;;6.20;5.60;;;;;10.20;100.00;102386.13;4886310;29;45058;-81
2021/12/13 09:35:25;;;;;;;;;6.60;5.80;;;;;10.19;100.00;102384.41;4888062;29;45443;-82
2021/12/13 09:37:52;;;;;;;;;9.80;7.00;;;;;10.22;100.00;102394.91;4869177;29;44791;-83
2021/12/13 09:40:26;;;;;;;;;7.00;6.80;;;;;10.17;100.00;102391.56;4885288;29;45354;-83
2021/12/13 09:42:56;;;;;;;;;14.75;8.50;;;;;10.15;100.00;102391.59;4884524;29;45437;-83
2021/12/13 09:45:26;;;;;;;;;7.20;6.00;;;;;10.14;100.00;102386.38;4887000;29;45513;-84
2021/12/13 09:47:52;;;;;;;;;5.40;5.40;;;;;10.12;100.00;102375.81;4892259;29;45405;-83
2021/12/13 09:50:30;;;;;;;;;6.00;5.60;;;;;10.10;100.00;102387.41;4863677;29;45477;-84
2021/12/13 09:53:04;;;;;;;;;4.00;3.40;;;;;10.09;100.00;102383.03;4881711;29;45570;-82
2021/12/13 09:55:33;;;;;;;;;4.20;3.20;;;;;10.02;100.00;102385.91;4894735;29;44993;-83
2021/12/13 09:58:12;;;;;;;;;4.60;4.00;;;;;9.94;100.00;102388.00;4864432;29;44806;-84
2021/12/13 10:00:51;;;;;;;;;3.60;3.40;;;;;9.84;100.00;102385.75;4881407;29;45365;-83
2021/12/13 10:03:28;;;;;;;;;5.00;4.50;;;;;9.84;100.00;102383.09;4880239;29;45420;-82
2021/12/13 10:06:03;;;;;;;;;3.80;3.80;;;;;9.80;100.00;102392.94;4875239;29;45415;-83
2021/12/13 10:08:57;;;;;;;;;3.20;3.00;;;;;9.79;100.00;102391.22;4880425;29;44953;-83
2021/12/13 10:11:33;;;;;;;;;2.40;2.40;;;;;9.73;100.00;102388.81;4883654;29;45420;-84
2021/12/13 10:14:01;;;;;;;;;2.80;2.80;;;;;9.71;100.00;102390.63;4884227;29;44809;-84
2021/12/13 10:16:32;;;;;;;;;3.00;3.00;;;;;9.68;100.00;102385.47;4886602;29;45492;-84
2021/12/13 10:19:00;;;;;;;;;4.00;4.00;;;;;9.70;100.00;102395.06;4883508;29;45351;-84
2021/12/13 10:21:33;;;;;;;;;1.00;1.00;;;;;9.70;100.00;102379.16;4884125;29;44862;-84
2021/12/13 10:24:07;;;;;;;;;4.40;3.60;;;;;9.65;100.00;102378.47;4887915;29;44869;-88
2021/12/13 10:26:38;;;;;;;;;4.00;4.00;;;;;9.61;100.00;102378.63;4869907;29;45268;-84
2021/12/13 10:29:17;;;;;;;;;0.60;0.60;;;;;9.51;100.00;102371.00;4871674;29;44878;-83
2021/12/13 10:32:17;;;;;;;;;3.00;3.00;;;;;9.47;100.00;102364.06;4871899;29;44830;-85
2021/12/13 10:34:51;;;;;;;;;4.00;4.00;;;;;9.45;100.00;102373.03;4866569;29;44886;-84
2021/12/13 10:37:27;;;;;;;;;2.20;2.20;;;;;9.46;100.00;102365.00;4869106;29;45123;-85
2021/12/13 10:40:23;;;;;;;;;2.60;2.60;;;;;9.43;100.00;102370.44;4877879;29;45335;-85
2021/12/13 10:43:25;;;;;;;;;2.00;2.00;;;;;9.40;100.00;102373.19;4868981;29;45377;-86
2021/12/13 10:46:02;;;;;;;;;2.00;2.00;;;;;9.39;100.00;102373.25;4877187;29;45653;-87
2021/12/13 10:48:31;;;;;;;;;4.60;3.00;;;;;9.37;100.00;102370.63;4889951;29;45244;-88
2021/12/13 10:51:09;;;;;;;;;4.40;4.00;;;;;9.31;100.00;102373.50;4895299;29;45319;-86
2021/12/13 10:53:36;;;;;;;;;3.00;3.00;;;;;9.32;100.00;102369.06;4870310;29;44871;-86
2021/12/13 10:56:08;;;;;;;;;4.40;4.00;;;;;9.30;100.00;102369.13;4886312;29;45472;-85
2021/12/13 10:58:37;;;;;;;;;5.00;3.00;;;;;9.29;100.00;102364.75;4882787;29;45568;-84
2021/12/13 11:01:10;;;;;;;;;3.80;3.00;;;;;9.27;100.00;102364.78;4891661;29;44854;-85
2021/12/13 11:03:38;;;;;;;;;2.80;2.80;;;;;9.32;100.00;102363.75;4885890;29;44873;-86
2021/12/13 11:06:05;;;;;;;;;1.80;1.80;;;;;9.35;100.00;102374.28;4867696;29;44869;-84
2021/12/13 11:08:32;;;;;;;;;3.60;3.00;;;;;9.34;100.00;102375.19;4885442;29;45286;-85
2021/12/13 11:11:09;;;;;;;;;3.80;3.20;;;;;9.31;100.00;102376.16;4879285;29;45212;-83
2021/12/13 11:13:38;;;;;;;;;4.20;3.20;;;;;9.32;100.00;102369.94;4886356;29;44712;-83
2021/12/13 11:16:18;;;;;;;;;4.20;4.20;;;;;9.33;100.00;102373.44;4884478;29;44801;-85
2021/12/13 11:18:45;;;;;;;;;5.40;2.80;;;;;9.34;100.00;102367.25;4882698;29;45324;-85
2021/12/13 11:21:23;;;;;;;;;4.00;4.00;;;;;9.29;100.00;102372.72;4884600;29;45195;-85
2021/12/13 11:23:49;;;;;;;;;5.60;4.00;;;;;9.27;100.00;102370.09;4886865;29;45591;-83
2021/12/13 11:26:23;;;;;;;;;4.50;4.00;;;;;9.23;100.00;102372.91;4869121;29;45532;-84
2021/12/13 11:28:49;;;;;;;;;3.20;3.20;;;;;9.22;100.00;102377.34;4886974;29;45467;-84
2021/12/13 11:32:00;;;;;;;;;6.80;6.00;;;;;9.18;100.00;102367.75;4893770;29;44881;-84
2021/12/13 11:34:56;;;;;;;;;6.20;5.20;;;;;9.22;100.00;102372.03;4868772;29;44862;-84
2021/12/13 11:37:55;;;;;;;;;5.60;5.60;;;;;9.24;100.00;102374.66;4862220;29;45561;-85
2021/12/13 11:40:55;;;;;;;;;4.80;4.80;;;;;9.26;100.00;102368.38;4861728;29;45605;-83
2021/12/13 11:43:57;;;;;;;;;9.60;6.00;;;;;9.30;100.00;102362.97;4876505;29;45378;-84
2021/12/13 11:46:27;;;;;;;;;4.40;4.00;;;;;9.34;100.00;102364.59;4862452;29;45381;-86